Time;durP1;ratioP1;P1;durP2;ratioP2;P2;SDS_P1;SDS_P2;PMS_P1;PMS_P2;Temp;Humidity;BMP_temperature;BMP_pressure;BME280_temperature;BME280_humidity;BME280_pressure;Samples;Min_cycle;Max_cycle;Signal;HPM_P1;HPM_P2
2023/10/15 00:00:19;;;;;;;3.53;2.33;;;11.00;99.90;;;;;;4984653;28;20455;-73
2023/10/15 00:02:50;;;;;;;2.87;1.60;;;11.10;99.90;;;;;;4983105;28;20534;-71
2023/10/15 00:05:27;;;;;;;7.53;1.83;;;11.10;99.90;;;;;;4982836;28;20456;-74
2023/10/15 00:07:54;;;;;;;2.50;1.60;;;11.10;99.90;;;;;;4983069;28;20463;-73
2023/10/15 00:10:21;;;;;;;2.67;1.70;;;11.00;99.90;;;;;;4983649;28;20462;-72
2023/10/15 00:12:53;;;;;;;1.70;1.53;;;10.90;99.90;;;;;;4985577;28;20456;-72
2023/10/15 00:15:20;;;;;;;4.17;1.60;;;10.70;99.90;;;;;;4982988;28;21144;-73
2023/10/15 00:17:53;;;;;;;3.37;1.57;;;10.60;99.90;;;;;;4984878;28;20472;-71
2023/10/15 00:20:20;;;;;;;4.00;1.90;;;10.70;99.90;;;;;;4982718;28;20471;-72
2023/10/15 00:22:47;;;;;;;3.77;1.43;;;10.90;99.90;;;;;;4992130;28;20471;-72
2023/10/15 00:25:19;;;;;;;2.37;2.00;;;10.90;99.90;;;;;;4982283;28;21059;-76
2023/10/15 00:27:54;;;;;;;4.40;1.53;;;10.90;99.90;;;;;;4982170;28;20488;-73
2023/10/15 00:30:21;;;;;;;6.40;1.90;;;10.80;99.90;;;;;;4982766;28;20472;-73
2023/10/15 00:32:52;;;;;;;3.70;1.40;;;10.80;99.90;;;;;;4967847;28;21382;-73
2023/10/15 00:35:21;;;;;;;1.80;1.70;;;10.90;99.90;;;;;;4990139;28;20461;-72
2023/10/15 00:37:54;;;;;;;4.43;1.90;;;10.90;99.90;;;;;;4986616;28;21050;-73
2023/10/15 00:40:21;;;;;;;2.80;1.77;;;10.90;99.90;;;;;;4976318;28;20465;-74
2023/10/15 00:42:47;;;;;;;3.30;1.87;;;10.90;99.90;;;;;;4982646;28;20523;-73
2023/10/15 00:45:14;;;;;;;4.20;1.97;;;10.80;99.90;;;;;;4980828;28;20488;-72
2023/10/15 00:47:42;;;;;;;3.93;2.23;;;10.80;99.90;;;;;;4989814;28;20491;-74
2023/10/15 00:50:09;;;;;;;2.13;1.40;;;10.80;99.90;;;;;;4982855;28;20460;-74
2023/10/15 00:52:38;;;;;;;7.13;1.87;;;10.80;99.90;;;;;;4966876;28;21124;-73
2023/10/15 00:55:05;;;;;;;3.33;1.80;;;10.80;99.90;;;;;;4981669;28;21154;-72
2023/10/15 00:57:41;;;;;;;2.37;1.87;;;10.80;99.90;;;;;;4985270;28;20455;-73
2023/10/15 01:00:36;;;;;;;4.17;1.63;;;10.80;99.90;;;;;;4974017;28;20484;-72
2023/10/15 01:02:57;;;;;;;2.60;1.53;;;10.80;99.90;;;;;;4987861;28;20954;-74
2023/10/15 01:05:27;;;;;;;2.10;1.57;;;10.80;99.90;;;;;;4963757;28;20572;-74
2023/10/15 01:07:54;;;;;;;2.93;1.37;;;10.70;99.90;;;;;;4969196;28;20603;-73
2023/10/15 01:10:40;;;;;;;2.10;1.50;;;10.50;99.90;;;;;;4986505;28;21076;-73
2023/10/15 01:13:17;;;;;;;3.50;1.70;;;10.50;99.90;;;;;;4952403;28;20562;-74
2023/10/15 01:15:45;;;;;;;3.60;1.90;;;10.40;99.90;;;;;;4954640;28;20461;-73
2023/10/15 01:18:11;;;;;;;2.17;1.53;;;10.40;99.90;;;;;;4968485;28;20982;-74
2023/10/15 01:20:41;;;;;;;3.40;1.40;;;10.50;99.90;;;;;;4987237;28;20528;-73
2023/10/15 01:23:07;;;;;;;3.73;1.97;;;10.50;99.90;;;;;;4953506;28;20252;-75
2023/10/15 01:25:34;;;;;;;3.73;1.80;;;10.40;99.90;;;;;;4970240;28;20986;-72
2023/10/15 01:28:00;;;;;;;3.67;1.70;;;10.30;99.90;;;;;;4936751;28;20217;-73
2023/10/15 01:30:27;;;;;;;2.17;1.60;;;10.20;99.90;;;;;;4971703;28;20575;-72
2023/10/15 01:32:54;;;;;;;3.70;1.87;;;10.10;99.90;;;;;;4963656;28;20260;-74
2023/10/15 01:35:20;;;;;;;2.90;1.80;;;10.00;99.90;;;;;;4985959;28;20457;-72
2023/10/15 01:37:59;;;;;;;6.17;2.20;;;10.00;99.90;;;;;;5004407;28;20545;-73
2023/10/15 01:40:40;;;;;;;2.80;2.07;;;9.70;99.90;;;;;;4976842;28;20688;-74
2023/10/15 01:43:12;;;;;;;2.60;1.80;;;9.70;99.90;;;;;;4979378;28;20468;-73
2023/10/15 01:45:40;;;;;;;2.10;1.50;;;9.70;99.90;;;;;;4968511;28;20469;-72
2023/10/15 01:48:24;;;;;;;7.03;2.27;;;9.60;99.90;;;;;;4990030;28;20464;-73
2023/10/15 01:50:50;;;;;;;2.97;2.20;;;9.70;99.90;;;;;;4968018;28;20496;-74
2023/10/15 01:53:16;;;;;;;1.93;1.63;;;9.60;99.90;;;;;;4968544;28;20465;-73
2023/10/15 01:55:54;;;;;;;2.43;2.23;;;9.70;99.90;;;;;;4966993;28;20996;-74
2023/10/15 01:58:24;;;;;;;3.27;2.07;;;9.80;99.90;;;;;;4982029;28;20231;-74
2023/10/15 02:00:51;;;;;;;4.53;2.23;;;9.90;99.90;;;;;;4962282;28;20508;-73
2023/10/15 02:03:17;;;;;;;2.00;1.80;;;9.90;99.90;;;;;;4965347;28;20464;-73
2023/10/15 02:05:46;;;;;;;6.83;1.70;;;9.90;99.90;;;;;;4974654;28;20480;-72
2023/10/15 02:08:22;;;;;;;2.17;1.87;;;9.90;99.90;;;;;;4957845;28;20222;-73
2023/10/15 02:10:49;;;;;;;3.87;2.33;;;9.90;99.90;;;;;;4962663;28;20458;-72
2023/10/15 02:13:21;;;;;;;5.30;1.60;;;9.90;99.90;;;;;;4976272;28;20697;-72
2023/10/15 02:15:55;;;;;;;3.70;1.93;;;9.80;99.90;;;;;;4974475;28;20481;-71
2023/10/15 02:18:21;;;;;;;1.90;1.40;;;9.80;99.90;;;;;;4968464;28;20489;-72
2023/10/15 02:23:18;;;;;;;2.80;2.07;;;9.80;99.90;;;;;;4979435;28;20300;-73
2023/10/15 02:25:57;;;;;;;3.70;1.73;;;9.70;99.90;;;;;;4968062;28;21073;-72
2023/10/15 02:28:30;;;;;;;7.67;1.83;;;9.60;99.90;;;;;;4977181;28;20468;-72
2023/10/15 02:33:29;;;;;;;2.03;1.83;;;9.70;99.90;;;;;;4969513;28;20480;-73
2023/10/15 02:35:59;;;;;;;2.27;1.37;;;9.80;99.90;;;;;;4967725;28;20534;-74
2023/10/15 02:38:32;;;;;;;2.10;1.73;;;9.90;99.90;;;;;;4951205;28;20650;-72
2023/10/15 02:41:03;;;;;;;3.57;1.63;;;10.00;99.90;;;;;;4967675;28;20461;-72
2023/10/15 02:43:33;;;;;;;2.33;1.60;;;10.00;99.90;;;;;;4968006;28;20476;-72
2023/10/15 02:46:22;;;;;;;4.17;1.97;;;10.00;99.90;;;;;;4968443;28;21223;-73
2023/10/15 02:48:48;;;;;;;3.60;1.70;;;10.10;99.90;;;;;;4966692;28;20472;-72
2023/10/15 02:51:18;;;;;;;2.63;1.50;;;10.10;99.90;;;;;;4965958;28;21228;-73
2023/10/15 02:53:51;;;;;;;5.27;1.97;;;10.10;99.90;;;;;;4950888;28;20470;-73
2023/10/15 02:56:18;;;;;;;3.73;1.83;;;10.20;99.90;;;;;;4968372;28;20536;-73
2023/10/15 02:58:44;;;;;;;7.60;1.70;;;10.30;99.90;;;;;;4974890;28;20482;-71
2023/10/15 03:01:20;;;;;;;1.73;1.30;;;10.20;99.90;;;;;;4960154;28;20445;-73
2023/10/15 03:03:49;;;;;;;3.93;1.70;;;10.30;99.90;;;;;;4951036;28;20472;-72
2023/10/15 03:06:34;;;;;;;2.23;1.47;;;10.30;99.90;;;;;;4965879;28;20539;-74
2023/10/15 03:09:00;;;;;;;4.03;1.93;;;10.20;99.90;;;;;;4975395;28;20480;-72
2023/10/15 03:11:33;;;;;;;3.30;1.63;;;10.20;99.90;;;;;;4966789;28;20467;-73
2023/10/15 03:14:00;;;;;;;2.27;1.60;;;10.10;99.90;;;;;;4966415;28;20468;-73
2023/10/15 03:16:32;;;;;;;3.50;1.90;;;10.00;99.90;;;;;;4959327;28;20616;-72
2023/10/15 03:19:07;;;;;;;4.53;2.00;;;10.00;99.90;;;;;;4949563;28;20512;-73
2023/10/15 03:21:38;;;;;;;1.60;1.50;;;10.00;99.90;;;;;;4954101;28;20570;-72
2023/10/15 03:24:05;;;;;;;2.67;1.90;;;9.90;99.90;;;;;;4985782;28;20467;-74
2023/10/15 03:26:33;;;;;;;3.63;1.67;;;9.80;99.90;;;;;;4994295;28;20523;-72
2023/10/15 03:28:59;;;;;;;5.00;1.97;;;9.70;99.90;;;;;;4984878;28;20535;-71
2023/10/15 03:31:28;;;;;;;5.37;2.50;;;9.70;99.90;;;;;;4996624;28;20468;-72
2023/10/15 03:36:46;;;;;;;5.47;1.90;;;9.40;99.90;;;;;;4964646;28;20629;-73
2023/10/15 03:44:52;;;;;;;4.07;1.90;;;9.70;99.90;;;;;;4967151;28;20476;-73
2023/10/15 03:47:22;;;;;;;5.40;2.00;;;9.80;99.90;;;;;;4969627;28;20558;-73
2023/10/15 03:49:51;;;;;;;1.77;1.67;;;9.80;99.90;;;;;;4971189;28;20469;-73
2023/10/15 03:52:20;;;;;;;3.33;1.90;;;9.80;99.90;;;;;;4971057;28;20464;-73
2023/10/15 03:54:49;;;;;;;2.20;1.70;;;9.80;99.90;;;;;;4968786;28;20593;-73
2023/10/15 03:57:26;;;;;;;6.20;1.70;;;9.80;99.90;;;;;;4967356;28;20473;-72
2023/10/15 03:59:53;;;;;;;2.10;1.73;;;9.80;99.90;;;;;;4978714;28;20492;-73
2023/10/15 04:05:20;;;;;;;2.63;1.70;;;9.80;99.90;;;;;;4971842;28;20790;-72
2023/10/15 04:07:48;;;;;;;5.27;2.17;;;9.70;99.90;;;;;;4949367;28;20464;-72
2023/10/15 04:10:23;;;;;;;3.43;2.27;;;9.70;99.90;;;;;;4962338;28;20464;-71
2023/10/15 04:12:50;;;;;;;36.73;17.43;;;9.80;99.90;;;;;;4970636;28;20452;-72
2023/10/15 04:15:17;;;;;;;7.10;5.83;;;9.80;99.90;;;;;;4962879;28;20493;-73
2023/10/15 04:17:45;;;;;;;4.40;2.97;;;9.80;99.90;;;;;;4972692;28;20480;-72
2023/10/15 04:20:13;;;;;;;9.13;2.93;;;9.80;99.90;;;;;;4965565;28;20486;-73
2023/10/15 04:22:44;;;;;;;6.57;2.80;;;9.90;99.90;;;;;;4966328;28;20687;-72
2023/10/15 04:25:26;;;;;;;2.40;2.10;;;9.90;99.90;;;;;;4987339;28;20478;-71
2023/10/15 04:27:54;;;;;;;1.60;1.50;;;9.80;99.90;;;;;;4966291;28;20482;-71
2023/10/15 04:30:21;;;;;;;2.30;2.10;;;9.80;99.90;;;;;;4965672;28;20474;-74
2023/10/15 04:32:47;;;;;;;2.00;1.60;;;9.80;99.90;;;;;;4966065;28;20468;-73
2023/10/15 04:35:25;;;;;;;5.23;2.17;;;9.80;99.90;;;;;;4973037;28;20461;-72
2023/10/15 04:37:57;;;;;;;4.20;2.03;;;9.70;99.90;;;;;;4963883;28;20499;-73
2023/10/15 04:40:23;;;;;;;3.30;2.03;;;9.70;99.90;;;;;;4964624;28;20600;-72
2023/10/15 04:42:52;;;;;;;3.13;1.60;;;9.80;99.90;;;;;;4974011;28;20467;-72
2023/10/15 04:45:23;;;;;;;1.97;1.77;;;9.70;99.90;;;;;;4966899;28;20545;-72
2023/10/15 04:47:54;;;;;;;7.30;1.87;;;9.70;99.90;;;;;;4953971;28;20469;-72
2023/10/15 04:50:20;;;;;;;2.33;2.13;;;9.80;99.90;;;;;;4966050;28;20465;-72
2023/10/15 04:52:46;;;;;;;4.33;1.90;;;9.70;99.90;;;;;;4959691;28;21096;-72
2023/10/15 04:55:13;;;;;;;6.10;1.80;;;9.70;99.90;;;;;;4956279;28;20567;-73
2023/10/15 04:57:39;;;;;;;4.00;1.67;;;9.60;99.90;;;;;;4952987;28;20240;-72
2023/10/15 05:00:07;;;;;;;1.97;1.77;;;9.60;99.90;;;;;;4957697;28;20520;-73
2023/10/15 05:02:33;;;;;;;7.33;1.93;;;9.60;99.90;;;;;;4964903;28;20234;-71
2023/10/15 05:05:05;;;;;;;2.63;1.47;;;9.60;99.90;;;;;;4965893;28;20492;-73
2023/10/15 05:07:32;;;;;;;2.93;2.00;;;9.60;99.90;;;;;;4961206;28;20469;-74
2023/10/15 05:09:59;;;;;;;2.60;1.57;;;9.70;99.90;;;;;;4965205;28;20471;-72
2023/10/15 05:12:26;;;;;;;3.27;1.80;;;9.70;99.90;;;;;;4976737;28;20536;-72
2023/10/15 05:14:51;;;;;;;2.20;1.50;;;9.60;99.90;;;;;;4972080;28;20476;-73
2023/10/15 05:17:17;;;;;;;3.83;1.90;;;9.60;99.90;;;;;;4963825;28;21113;-74
2023/10/15 05:19:43;;;;;;;1.57;1.47;;;9.50;99.90;;;;;;4953394;28;20242;-73
2023/10/15 05:22:09;;;;;;;1.60;1.50;;;9.50;99.90;;;;;;4962734;28;20250;-73
2023/10/15 05:24:36;;;;;;;3.10;1.60;;;9.40;99.90;;;;;;4963823;28;20284;-72
2023/10/15 05:27:02;;;;;;;2.73;1.67;;;9.40;99.90;;;;;;4960957;28;20553;-72
2023/10/15 05:29:28;;;;;;;1.63;1.47;;;9.40;99.90;;;;;;4966770;28;20500;-72
2023/10/15 05:31:54;;;;;;;2.63;1.77;;;9.30;99.90;;;;;;4960568;28;20701;-73
2023/10/15 05:34:20;;;;;;;2.83;1.47;;;9.30;99.90;;;;;;4963944;28;20308;-72
2023/10/15 05:36:46;;;;;;;2.67;1.40;;;9.20;99.90;;;;;;4968911;28;20596;-73
2023/10/15 05:39:15;;;;;;;3.20;1.70;;;9.20;99.90;;;;;;4958679;28;20885;-73
2023/10/15 05:41:42;;;;;;;3.80;1.57;;;9.00;99.90;;;;;;4965022;28;20222;-73
2023/10/15 05:44:08;;;;;;;3.20;1.70;;;8.90;99.90;;;;;;4956521;28;20488;-71
2023/10/15 05:46:33;;;;;;;2.60;1.53;;;8.90;99.90;;;;;;4964051;28;21069;-72
2023/10/15 05:48:59;;;;;;;2.93;1.60;;;8.90;99.90;;;;;;4959020;28;20356;-72
2023/10/15 05:51:26;;;;;;;2.30;1.43;;;8.90;99.90;;;;;;4972848;28;20228;-73
2023/10/15 05:53:51;;;;;;;2.43;1.73;;;8.80;99.90;;;;;;4968589;28;20273;-73
2023/10/15 05:56:18;;;;;;;4.53;1.30;;;8.70;99.90;;;;;;4967509;28;20453;-72
2023/10/15 05:58:44;;;;;;;5.23;2.00;;;8.70;99.90;;;;;;4993881;28;20244;-72
2023/10/15 06:01:10;;;;;;;2.70;1.70;;;8.60;99.90;;;;;;4959502;28;20473;-73
2023/10/15 06:03:37;;;;;;;2.73;1.90;;;8.60;99.90;;;;;;4975182;28;20788;-72
2023/10/15 06:06:05;;;;;;;1.40;1.30;;;8.60;99.90;;;;;;4990452;28;20340;-73
2023/10/15 06:08:30;;;;;;;4.77;2.10;;;8.60;99.90;;;;;;4960627;28;20456;-72
2023/10/15 06:10:57;;;;;;;1.60;1.50;;;8.60;99.90;;;;;;4991174;28;20500;-73
2023/10/15 06:13:23;;;;;;;2.50;1.50;;;8.70;99.90;;;;;;4958426;28;20314;-73
2023/10/15 06:15:50;;;;;;;4.50;1.80;;;8.60;99.90;;;;;;4990120;28;20511;-73
2023/10/15 06:18:16;;;;;;;3.00;1.50;;;8.60;99.90;;;;;;4985099;28;20920;-72
2023/10/15 06:20:42;;;;;;;2.30;1.37;;;8.60;99.90;;;;;;4985969;28;20522;-73
2023/10/15 06:23:08;;;;;;;1.77;1.63;;;8.70;99.90;;;;;;4982705;28;20690;-73
2023/10/15 06:25:35;;;;;;;4.60;1.50;;;8.60;99.90;;;;;;4971272;28;20222;-73
2023/10/15 06:28:02;;;;;;;2.03;1.33;;;8.60;99.90;;;;;;4970947;28;20460;-74
2023/10/15 06:30:27;;;;;;;2.27;1.50;;;8.40;99.90;;;;;;4967613;28;20477;-73
2023/10/15 06:32:53;;;;;;;2.67;1.63;;;8.40;99.90;;;;;;4966997;28;20488;-72
2023/10/15 06:35:21;;;;;;;9.27;2.97;;;8.20;99.90;;;;;;4969546;28;20233;-71
2023/10/15 06:37:52;;;;;;;10.07;2.10;;;8.20;99.90;;;;;;4986369;28;20226;-73
2023/10/15 06:40:18;;;;;;;5.50;1.77;;;8.10;99.90;;;;;;4975760;28;20491;-71
2023/10/15 06:42:44;;;;;;;3.03;1.90;;;8.30;99.90;;;;;;4961279;28;20569;-71
2023/10/15 06:45:10;;;;;;;2.63;2.43;;;8.30;99.90;;;;;;4960276;28;20501;-73
2023/10/15 06:47:37;;;;;;;1.90;1.73;;;8.40;99.90;;;;;;4956887;28;20480;-71
2023/10/15 06:50:07;;;;;;;2.57;1.60;;;8.40;99.90;;;;;;4971703;28;20584;-73
2023/10/15 06:52:38;;;;;;;3.87;2.47;;;8.30;99.90;;;;;;4981739;28;20471;-73
2023/10/15 06:55:08;;;;;;;2.97;2.07;;;8.40;99.90;;;;;;4966662;28;20477;-73
2023/10/15 06:57:38;;;;;;;9.40;3.10;;;8.60;99.90;;;;;;4967930;28;20539;-71
2023/10/15 07:00:07;;;;;;;2.47;1.67;;;8.60;99.90;;;;;;4966656;28;20496;-73
2023/10/15 07:02:32;;;;;;;4.67;2.07;;;8.60;99.90;;;;;;4967436;28;20468;-73
2023/10/15 07:05:00;;;;;;;4.53;3.03;;;8.60;99.90;;;;;;4972983;28;20969;-71
2023/10/15 07:07:26;;;;;;;4.57;1.97;;;8.60;99.90;;;;;;4969656;28;20250;-72
2023/10/15 07:09:52;;;;;;;2.87;1.80;;;8.60;99.90;;;;;;4944400;28;20538;-73
2023/10/15 07:12:18;;;;;;;2.57;2.00;;;8.40;99.90;;;;;;4948203;28;20307;-73
2023/10/15 07:14:44;;;;;;;2.87;1.67;;;8.40;99.90;;;;;;4971303;28;20504;-73
2023/10/15 07:17:10;;;;;;;6.57;1.90;;;8.50;99.90;;;;;;4988859;28;20476;-73
2023/10/15 07:19:36;;;;;;;6.47;1.80;;;8.50;99.90;;;;;;4978640;28;20227;-72
2023/10/15 07:22:02;;;;;;;1.90;1.63;;;8.60;99.90;;;;;;4966975;28;20364;-73
2023/10/15 07:24:30;;;;;;;1.33;1.10;;;8.70;99.90;;;;;;4970877;28;20473;-72
2023/10/15 07:26:55;;;;;;;2.83;1.60;;;8.80;99.90;;;;;;4981761;28;20226;-73
2023/10/15 07:29:21;;;;;;;1.80;1.57;;;8.70;99.90;;;;;;4983138;28;20480;-73
2023/10/15 07:31:48;;;;;;;5.33;2.37;;;8.70;99.90;;;;;;4977172;28;20618;-73
2023/10/15 07:34:13;;;;;;;3.27;1.50;;;8.70;99.90;;;;;;4981710;28;20233;-73
2023/10/15 07:36:39;;;;;;;2.93;2.07;;;8.80;99.90;;;;;;4982052;28;20464;-72
2023/10/15 07:39:06;;;;;;;2.43;1.67;;;8.70;99.90;;;;;;4982147;28;20796;-72
2023/10/15 07:41:33;;;;;;;3.50;1.80;;;8.60;99.90;;;;;;4985169;28;20225;-73
2023/10/15 07:44:01;;;;;;;2.57;1.70;;;8.70;99.90;;;;;;4975154;28;20491;-72
2023/10/15 07:46:28;;;;;;;5.77;2.30;;;8.90;99.90;;;;;;4981599;28;20467;-73
2023/10/15 07:48:54;;;;;;;2.90;1.63;;;9.00;99.90;;;;;;4981165;28;20472;-73
2023/10/15 07:51:20;;;;;;;6.80;3.13;;;9.10;99.90;;;;;;4991991;28;21068;-73
2023/10/15 07:53:45;;;;;;;5.13;2.67;;;9.10;99.90;;;;;;4983915;28;20479;-72
2023/10/15 07:56:14;;;;;;;6.10;2.20;;;9.10;99.90;;;;;;4983599;28;20237;-72
2023/10/15 07:58:40;;;;;;;1.83;1.50;;;9.00;99.90;;;;;;4985759;28;20244;-72
2023/10/15 08:01:06;;;;;;;4.77;1.57;;;9.00;99.90;;;;;;4981055;28;20464;-73
2023/10/15 08:03:32;;;;;;;3.40;2.20;;;9.10;99.90;;;;;;4982219;28;20527;-73
2023/10/15 08:06:01;;;;;;;2.13;1.30;;;9.20;99.90;;;;;;4983381;28;20221;-73
2023/10/15 08:08:27;;;;;;;5.23;1.97;;;9.10;99.90;;;;;;4993884;28;21153;-72
2023/10/15 08:10:53;;;;;;;1.90;1.70;;;9.10;99.90;;;;;;4948623;28;20477;-73
2023/10/15 08:13:18;;;;;;;2.87;1.80;;;9.10;99.90;;;;;;4965962;28;20481;-72
2023/10/15 08:15:44;;;;;;;2.93;1.73;;;9.20;99.90;;;;;;4947230;28;20222;-72
2023/10/15 08:18:12;;;;;;;3.87;1.73;;;9.30;99.90;;;;;;4957250;28;20230;-73
2023/10/15 08:20:38;;;;;;;3.17;1.83;;;9.40;99.90;;;;;;4964985;28;20315;-73
2023/10/15 08:23:03;;;;;;;4.10;1.90;;;9.50;99.90;;;;;;4963589;28;20509;-73
2023/10/15 08:25:31;;;;;;;2.70;1.70;;;9.50;99.90;;;;;;4977045;28;20237;-72
2023/10/15 08:27:57;;;;;;;2.43;1.47;;;9.70;99.90;;;;;;4963319;28;20899;-73
2023/10/15 08:30:23;;;;;;;4.13;2.27;;;9.80;99.90;;;;;;4965306;28;20471;-74
2023/10/15 08:32:49;;;;;;;2.40;1.40;;;9.90;99.90;;;;;;4964777;28;20461;-72
2023/10/15 08:35:16;;;;;;;6.80;1.90;;;10.10;99.90;;;;;;4962247;28;20237;-73
2023/10/15 08:37:42;;;;;;;1.13;1.07;;;10.10;99.90;;;;;;4964235;28;20856;-73
2023/10/15 08:40:15;;;;;;;5.27;1.90;;;10.20;99.90;;;;;;4994811;28;20497;-73
2023/10/15 08:43:10;;;;;;;3.37;1.60;;;10.20;99.90;;;;;;4963969;28;20473;-73
2023/10/15 08:45:38;;;;;;;1.70;1.50;;;10.30;99.90;;;;;;4984482;28;20482;-73
2023/10/15 08:48:10;;;;;;;7.03;1.30;;;10.40;99.90;;;;;;4965818;28;20467;-73
2023/10/15 08:50:37;;;;;;;3.93;1.77;;;10.60;99.90;;;;;;4983185;28;21273;-73
2023/10/15 08:53:04;;;;;;;4.20;1.50;;;10.60;99.90;;;;;;4981293;28;20463;-72
2023/10/15 08:55:33;;;;;;;3.20;1.53;;;10.60;99.90;;;;;;4980493;28;21252;-72
2023/10/15 08:58:00;;;;;;;3.10;1.40;;;10.70;99.90;;;;;;4980269;28;20468;-72
2023/10/15 09:00:26;;;;;;;3.00;1.73;;;10.80;99.90;;;;;;4965585;28;20890;-73
2023/10/15 09:02:56;;;;;;;1.67;1.20;;;10.80;99.90;;;;;;4982428;28;20475;-73
2023/10/15 09:05:25;;;;;;;2.90;1.80;;;11.00;99.90;;;;;;4983585;28;20552;-73
2023/10/15 09:07:56;;;;;;;1.47;1.10;;;11.00;99.90;;;;;;4982177;28;21112;-74
2023/10/15 09:10:22;;;;;;;1.80;1.30;;;11.00;99.90;;;;;;4985206;28;20471;-72
2023/10/15 09:12:49;;;;;;;3.47;1.30;;;11.00;99.90;;;;;;4983883;28;20934;-73
2023/10/15 09:15:16;;;;;;;1.00;0.90;;;11.10;99.90;;;;;;4975286;28;20464;-73
2023/10/15 09:17:49;;;;;;;4.67;1.27;;;11.20;99.90;;;;;;4966296;28;20591;-73
2023/10/15 09:20:25;;;;;;;2.50;1.13;;;11.30;99.90;;;;;;4967708;28;20476;-73
2023/10/15 09:22:52;;;;;;;1.53;0.93;;;11.20;99.90;;;;;;4966646;28;20552;-73
2023/10/15 09:25:18;;;;;;;1.93;1.33;;;11.20;99.90;;;;;;4988764;28;21017;-73
2023/10/15 09:27:46;;;;;;;1.27;0.97;;;11.40;99.90;;;;;;4981382;28;20508;-72
2023/10/15 09:30:19;;;;;;;1.20;1.00;;;11.30;99.90;;;;;;4981827;28;20228;-73
2023/10/15 09:32:47;;;;;;;1.83;0.80;;;11.20;99.90;;;;;;4984087;28;20472;-72
2023/10/15 09:35:16;;;;;;;4.03;1.17;;;11.20;99.90;;;;;;4986433;28;20465;-73
2023/10/15 09:37:44;;;;;;;3.50;1.50;;;11.20;99.90;;;;;;4954973;28;20511;-74
2023/10/15 09:40:18;;;;;;;2.53;1.10;;;11.20;99.90;;;;;;4954212;28;20608;-74
2023/10/15 09:42:46;;;;;;;1.23;1.13;;;11.40;99.90;;;;;;4957608;28;20481;-73
2023/10/15 09:45:18;;;;;;;2.30;1.10;;;11.40;99.90;;;;;;4963950;28;20449;-74
2023/10/15 09:47:52;;;;;;;1.40;1.20;;;11.30;99.90;;;;;;4960529;28;20519;-73
2023/10/15 09:50:25;;;;;;;1.60;1.00;;;11.20;99.90;;;;;;4963964;28;20501;-73
2023/10/15 09:53:08;;;;;;;4.47;1.30;;;11.30;99.90;;;;;;4962614;28;20461;-74
2023/10/15 09:55:35;;;;;;;1.20;1.00;;;11.40;99.90;;;;;;4946564;28;20477;-74
2023/10/15 09:58:06;;;;;;;2.77;1.30;;;11.50;99.90;;;;;;4966270;28;20475;-73
2023/10/15 10:01:09;;;;;;;1.57;1.00;;;11.60;99.90;;;;;;4969897;28;20472;-74
2023/10/15 10:03:52;;;;;;;3.20;1.27;;;11.60;99.90;;;;;;4970750;28;20468;-73
2023/10/15 10:06:47;;;;;;;0.93;0.90;;;11.60;99.90;;;;;;4969814;28;20476;-72
2023/10/15 10:09:21;;;;;;;2.00;1.30;;;11.50;99.90;;;;;;4975978;28;20466;-72
2023/10/15 10:12:15;;;;;;;2.80;1.27;;;11.50;99.90;;;;;;4973148;28;20662;-73
2023/10/15 10:15:01;;;;;;;3.57;0.93;;;11.50;99.90;;;;;;4958761;28;20494;-72
2023/10/15 10:17:28;;;;;;;2.20;1.27;;;11.70;99.90;;;;;;4969402;28;20603;-74
2023/10/15 10:19:54;;;;;;;2.70;1.10;;;11.70;99.90;;;;;;4973957;28;20506;-73
2023/10/15 10:22:23;;;;;;;1.30;1.20;;;11.70;99.90;;;;;;4975278;28;20477;-73
2023/10/15 10:24:50;;;;;;;1.33;1.03;;;12.00;99.90;;;;;;4966981;28;20627;-74
2023/10/15 10:27:16;;;;;;;2.83;1.33;;;12.00;99.90;;;;;;4972631;28;20474;-73
2023/10/15 10:29:43;;;;;;;1.60;1.00;;;11.90;99.90;;;;;;4967201;28;20535;-74
2023/10/15 10:32:14;;;;;;;1.50;1.10;;;12.00;99.90;;;;;;4966991;28;20485;-74
2023/10/15 10:34:41;;;;;;;1.80;0.87;;;12.20;99.90;;;;;;4962973;28;20514;-73
2023/10/15 10:37:20;;;;;;;1.63;1.00;;;12.10;99.90;;;;;;4964495;28;20539;-74
2023/10/15 10:39:48;;;;;;;1.10;0.90;;;12.20;99.90;;;;;;4967904;28;20527;-74
2023/10/15 10:42:24;;;;;;;1.50;1.10;;;12.40;99.90;;;;;;4973880;28;20458;-73
2023/10/15 10:44:50;;;;;;;1.97;0.90;;;12.90;99.90;;;;;;4966623;28;20504;-73
2023/10/15 10:47:28;;;;;;;1.17;0.80;;;12.90;99.90;;;;;;4963225;28;20461;-73
2023/10/15 10:49:56;;;;;;;0.97;0.97;;;13.00;99.90;;;;;;4962949;28;20221;-73
2023/10/15 10:52:35;;;;;;;1.10;0.93;;;13.20;99.90;;;;;;4960861;28;20585;-74
2023/10/15 10:55:32;;;;;;;2.97;1.10;;;13.00;99.90;;;;;;4956673;28;20477;-74
2023/10/15 10:58:02;;;;;;;1.90;1.00;;;13.10;99.90;;;;;;4956115;28;20490;-73
2023/10/15 11:00:31;;;;;;;2.53;1.00;;;12.90;99.90;;;;;;4980942;28;20480;-74
2023/10/15 11:03:06;;;;;;;1.23;0.90;;;13.40;99.90;;;;;;4958991;28;20508;-74
2023/10/15 11:05:34;;;;;;;2.00;1.23;;;13.60;99.90;;;;;;4964625;28;20583;-74
2023/10/15 11:08:00;;;;;;;1.53;1.00;;;13.50;99.90;;;;;;4960584;28;20480;-73
2023/10/15 11:10:31;;;;;;;1.50;1.33;;;13.30;99.90;;;;;;4963116;28;20656;-74
2023/10/15 11:12:58;;;;;;;1.67;1.40;;;12.90;99.90;;;;;;4950190;28;20486;-73
2023/10/15 11:15:24;;;;;;;1.67;1.10;;;13.20;99.90;;;;;;4960718;28;20900;-73
2023/10/15 11:17:57;;;;;;;1.40;1.30;;;13.50;99.90;;;;;;4960025;28;20473;-74
2023/10/15 11:20:27;;;;;;;1.73;1.33;;;13.50;99.90;;;;;;4958717;28;20473;-74
2023/10/15 11:22:53;;;;;;;1.30;1.20;;;13.60;99.90;;;;;;4956729;28;20515;-75
2023/10/15 11:25:20;;;;;;;3.70;1.20;;;13.70;99.90;;;;;;4962473;28;20478;-74
2023/10/15 11:27:48;;;;;;;2.20;1.17;;;13.90;99.90;;;;;;4963599;28;20465;-74
2023/10/15 11:30:15;;;;;;;1.93;1.27;;;13.60;99.90;;;;;;4955682;28;20474;-74
2023/10/15 11:32:40;;;;;;;1.93;1.30;;;13.70;99.90;;;;;;4966912;28;20464;-73
2023/10/15 11:35:07;;;;;;;2.50;2.30;;;13.40;99.90;;;;;;4955436;28;20477;-74
2023/10/15 11:37:35;;;;;;;2.00;1.67;;;13.30;99.90;;;;;;4969099;28;20660;-73
2023/10/15 11:40:00;;;;;;;1.63;1.13;;;13.40;99.90;;;;;;4955199;28;20512;-74
2023/10/15 11:42:28;;;;;;;1.50;1.03;;;12.70;99.90;;;;;;4959209;28;21320;-73
2023/10/15 11:44:56;;;;;;;3.10;1.10;;;12.10;99.90;;;;;;4954559;28;20885;-73
2023/10/15 11:47:24;;;;;;;2.60;1.20;;;11.80;99.90;;;;;;4958991;28;20510;-72
2023/10/15 11:49:50;;;;;;;1.00;1.00;;;11.50;99.90;;;;;;4958533;28;20476;-72
2023/10/15 11:52:22;;;;;;;1.97;1.13;;;11.40;99.90;;;;;;4955873;28;20483;-73
2023/10/15 11:54:50;;;;;;;1.50;1.20;;;11.40;99.90;;;;;;4961659;28;20316;-74
2023/10/15 11:57:23;;;;;;;1.23;1.00;;;11.40;99.90;;;;;;4957803;28;20473;-73
2023/10/15 11:59:48;;;;;;;0.90;0.90;;;11.40;99.90;;;;;;4947522;28;20485;-74
2023/10/15 12:02:14;;;;;;;1.27;0.90;;;11.50;99.90;;;;;;4972521;28;20491;-72
2023/10/15 12:04:40;;;;;;;2.33;0.73;;;11.70;99.90;;;;;;4968733;28;20230;-74
2023/10/15 12:07:11;;;;;;;0.97;0.87;;;11.80;99.90;;;;;;4972819;28;20968;-73
2023/10/15 12:09:39;;;;;;;1.37;1.27;;;11.80;99.90;;;;;;4964975;28;20226;-73
2023/10/15 12:12:07;;;;;;;1.20;1.00;;;11.80;99.90;;;;;;4947496;28;20473;-73
2023/10/15 12:14:33;;;;;;;0.80;0.80;;;11.70;99.90;;;;;;4957807;28;21237;-74
2023/10/15 12:16:58;;;;;;;1.20;0.90;;;12.00;99.90;;;;;;4939643;28;20472;-74
2023/10/15 12:19:24;;;;;;;1.40;0.97;;;12.20;99.90;;;;;;4955918;28;20241;-74
2023/10/15 12:21:50;;;;;;;1.43;1.30;;;12.20;99.90;;;;;;4955687;28;20236;-71
2023/10/15 12:24:17;;;;;;;1.63;1.50;;;11.90;99.90;;;;;;4954727;28;20235;-72
2023/10/15 12:26:46;;;;;;;1.67;1.47;;;11.70;99.90;;;;;;4949577;28;20226;-73
2023/10/15 12:29:13;;;;;;;2.20;1.63;;;11.70;99.90;;;;;;4973906;28;20580;-73
2023/10/15 12:31:43;;;;;;;1.97;1.77;;;11.60;99.90;;;;;;4953289;28;20481;-73
2023/10/15 12:34:11;;;;;;;1.50;1.40;;;11.60;99.90;;;;;;4954855;28;20483;-73
2023/10/15 12:36:38;;;;;;;1.53;1.10;;;11.70;99.90;;;;;;4956092;28;20476;-72
2023/10/15 12:39:05;;;;;;;1.80;1.70;;;11.60;99.90;;;;;;4965089;28;20473;-74
2023/10/15 12:41:31;;;;;;;1.70;1.60;;;11.50;99.90;;;;;;4947093;28;21259;-73
2023/10/15 12:44:00;;;;;;;3.47;2.30;;;11.60;99.90;;;;;;4951171;28;20483;-74
2023/10/15 12:46:29;;;;;;;3.63;2.83;;;11.60;99.90;;;;;;4960523;28;20671;-73
2023/10/15 12:48:56;;;;;;;6.33;3.63;;;11.70;99.90;;;;;;4962937;28;20531;-73
2023/10/15 12:51:23;;;;;;;3.00;2.77;;;11.60;99.90;;;;;;4967626;28;20463;-73
2023/10/15 12:53:49;;;;;;;2.07;1.90;;;11.80;99.90;;;;;;4975109;28;20508;-74
2023/10/15 12:56:14;;;;;;;2.30;1.60;;;11.90;99.90;;;;;;4961363;28;20914;-73
2023/10/15 12:58:40;;;;;;;1.63;1.47;;;11.80;99.90;;;;;;4954722;28;20716;-73
2023/10/15 13:01:07;;;;;;;1.93;1.53;;;11.70;99.90;;;;;;4952812;28;20225;-74
2023/10/15 13:03:33;;;;;;;2.80;1.77;;;11.80;99.90;;;;;;4986891;28;20226;-72
2023/10/15 13:05:59;;;;;;;4.00;1.50;;;11.90;99.90;;;;;;4950839;28;20473;-74
2023/10/15 13:08:25;;;;;;;3.20;1.30;;;12.20;99.90;;;;;;4955995;28;20472;-73
2023/10/15 13:10:51;;;;;;;1.53;1.30;;;12.10;99.90;;;;;;4955019;28;20561;-73
2023/10/15 13:13:17;;;;;;;1.73;1.30;;;12.10;99.90;;;;;;4953315;28;20229;-73
2023/10/15 13:15:42;;;;;;;1.30;1.20;;;12.10;99.90;;;;;;4964148;28;20214;-72